INFORMAÇÕES METEOROLÓGICAS
METAR FOR PADK
ADDS - METARS form results

(0846 UTC 17 September 2019)
Data provider http://aviationweather.gov/metar/data/
 
METAR text: PADK 170845Z AUTO 25010KT 1SM BR OVC002 08/08 A2942 RMK AO2
Conditions at: PADK (ADAK NAS , AK, US) observed 0845 UTC 17 September 2019
Temperature: 8.0°C (46°F)
Dewpoint: 8.0°C (46°F) [RH = 100%]
Pressure (altimeter): 29.42 inches Hg (996.4 mb)
Winds: from the WSW (250 degrees) at 12 MPH (10 knots; 5.1 m/s)
Visibility: 1.00 miles (1.61 km)
Ceiling: 200 feet AGL
Clouds: overcast cloud deck at 200 feet AGL
Weather: BR  (mist)

METAR text: PADK 170830Z AUTO 25009KT 1 1/2SM BR OVC002 08/08 A2942 RMK AO2 CIG 002V005
Conditions at: PADK (ADAK NAS , AK, US) observed 0830 UTC 17 September 2019
Temperature: 8.0°C (46°F)
Dewpoint: 8.0°C (46°F) [RH = 100%]
Pressure (altimeter): 29.42 inches Hg (996.4 mb)
Winds: from the WSW (250 degrees) at 10 MPH (9 knots; 4.6 m/s)
Visibility: 1.50 miles (2.41 km)
Ceiling: 200 feet AGL
Clouds: overcast cloud deck at 200 feet AGL
Weather: BR  (mist)

METAR text: PADK 170823Z AUTO 27009KT 2 1/2SM BR OVC004 09/08 A2942 RMK AO2 CIG 002V006
Conditions at: PADK (ADAK NAS , AK, US) observed 0823 UTC 17 September 2019
Temperature: 9.0°C (48°F)
Dewpoint: 8.0°C (46°F) [RH = 93%]
Pressure (altimeter): 29.42 inches Hg (996.4 mb)
Winds: from the W (270 degrees) at 10 MPH (9 knots; 4.6 m/s)
Visibility: 2.50 miles (4.02 km)
Ceiling: 400 feet AGL
Clouds: overcast cloud deck at 400 feet AGL
Weather: BR  (mist)

METAR text: PADK 170756Z AUTO 26009KT 10SM OVC006 09/08 A2943 RMK AO2 SLP964 T00890083
Conditions at: PADK (ADAK NAS , AK, US) observed 0756 UTC 17 September 2019
Temperature: 8.9°C (48°F)
Dewpoint: 8.3°C (47°F) [RH = 96%]
Pressure (altimeter): 29.43 inches Hg (996.7 mb)
[Sea-level pressure:  996.4 mb]
Winds: from the W (260 degrees) at 10 MPH (9 knots; 4.6 m/s)
Visibility: 10 or more miles (16+ km)
Ceiling: 600 feet AGL
Clouds: overcast cloud deck at 600 feet AGL
Weather: automated observation with no human augmentation;
there may or may not be significant weather present at this time

 MAPA DO AEROPORTO

 INFORMAÇÕES DA PISTA
Pista 05 Tamanho da pista 7790 ft Largura da pista 200 ft
Elevação da pista 17 ft Ranhura da pista 0 ft Proa da pista 61
Pista 23 Tamanho da pista 7790 ft Largura da pista 200 ft
Elevação da pista 15 ft Ranhura da pista 0 ft Proa da pista 241
Pista 18 Tamanho da pista 7605 ft Largura da pista 200 ft
Elevação da pista 6 ft Ranhura da pista 0 ft Proa da pista 185
Pista 36 Tamanho da pista 7605 ft Largura da pista 200 ft
Elevação da pista 4 ft Ranhura da pista 0 ft Proa da pista 5

 FREQUÊNCIAS DO AEROPORTO

 AUXÍLIOS DE NAVEGAÇÃO PRÓXIMOS AO AEROPORTO
Tipo NDB-DME Nome Mount Moffett Frequência 530 KHZ
Tipo TACAN Nome Adak Frequência 113000 KHZ



Powered by Mercosul Lnhas Aereas